Time;durP1;ratioP1;P1;durP2;ratioP2;P2;SDS_P1;SDS_P2;PMS_P1;PMS_P2;Temp;Humidity;BMP_temperature;BMP_pressure;BME280_temperature;BME280_humidity;BME280_pressure;Samples;Min_cycle;Max_cycle;Signal;HPM_P1;HPM_P2
2023/01/24 00:02:03;;;;;;;14.70;13.27;;;2.40;99.90;;;;;;5093967;28;20028;-64
2023/01/24 00:04:29;;;;;;;16.90;15.18;;;2.50;99.90;;;;;;5094018;28;20455;-64
2023/01/24 00:06:54;;;;;;;15.43;13.90;;;2.50;99.90;;;;;;5093822;28;20461;-64
2023/01/24 00:09:20;;;;;;;15.98;14.38;;;2.50;99.90;;;;;;5093816;28;20091;-64
2023/01/24 00:11:46;;;;;;;15.52;14.00;;;2.50;99.90;;;;;;5094302;28;20021;-64
2023/01/24 00:14:11;;;;;;;16.30;14.65;;;2.50;99.90;;;;;;5093807;28;20069;-64
2023/01/24 00:16:37;;;;;;;16.42;14.82;;;2.50;99.90;;;;;;5093703;28;20020;-64
2023/01/24 00:19:03;;;;;;;17.50;15.80;;;2.40;99.90;;;;;;5093282;28;20035;-64
2023/01/24 00:21:28;;;;;;;16.23;14.63;;;2.40;99.90;;;;;;5094210;28;20031;-64
2023/01/24 00:23:55;;;;;;;16.17;14.52;;;2.40;99.90;;;;;;5092274;28;20115;-64
2023/01/24 00:26:22;;;;;;;16.90;15.20;;;2.40;99.90;;;;;;5093701;28;20098;-64
2023/01/24 00:28:49;;;;;;;16.00;14.32;;;2.30;99.90;;;;;;5093807;28;20031;-64
2023/01/24 00:31:15;;;;;;;17.08;15.30;;;2.30;99.90;;;;;;5093387;28;20024;-64
2023/01/24 00:33:40;;;;;;;16.38;14.77;;;2.30;99.90;;;;;;5092910;28;20047;-64
2023/01/24 00:36:07;;;;;;;16.52;14.93;;;2.40;99.90;;;;;;5093204;28;20433;-64
2023/01/24 00:38:33;;;;;;;17.02;15.32;;;2.30;99.90;;;;;;5093359;28;20036;-64
2023/01/24 00:40:59;;;;;;;17.77;15.98;;;2.30;99.90;;;;;;5093274;28;20095;-64
2023/01/24 00:43:26;;;;;;;18.67;16.73;;;2.30;99.90;;;;;;5093158;28;20032;-63
2023/01/24 00:45:52;;;;;;;17.25;15.55;;;2.30;99.90;;;;;;5093022;28;20423;-64
2023/01/24 00:48:18;;;;;;;17.85;16.05;;;2.30;99.90;;;;;;5092747;28;20074;-64
2023/01/24 00:50:43;;;;;;;19.65;16.35;;;2.30;99.90;;;;;;5093142;28;20024;-64
2023/01/24 00:53:09;;;;;;;17.73;15.93;;;2.30;99.90;;;;;;5093186;28;20400;-63
2023/01/24 00:55:42;;;;;;;19.15;17.15;;;2.30;99.90;;;;;;5093424;28;20032;-64
2023/01/24 00:58:07;;;;;;;19.73;17.65;;;2.20;99.90;;;;;;5093083;28;20032;-64
2023/01/24 01:00:34;;;;;;;19.27;17.20;;;2.20;99.90;;;;;;5093065;28;20450;-64
2023/01/24 01:03:00;;;;;;;19.02;17.02;;;2.30;99.90;;;;;;5092231;28;20032;-64
2023/01/24 01:05:25;;;;;;;18.67;16.67;;;2.30;99.90;;;;;;5092787;28;20040;-64
2023/01/24 01:07:51;;;;;;;17.67;15.88;;;2.30;99.90;;;;;;5093247;28;20020;-64
2023/01/24 01:10:17;;;;;;;17.30;15.50;;;2.40;99.90;;;;;;5092790;28;20056;-64
2023/01/24 01:12:43;;;;;;;25.23;22.58;;;2.40;99.90;;;;;;5092473;28;20095;-63
2023/01/24 01:15:09;;;;;;;28.33;25.65;;;2.40;99.90;;;;;;5092629;28;20157;-63
2023/01/24 01:17:35;;;;;;;20.10;18.20;;;2.40;99.90;;;;;;5092578;28;20074;-63
2023/01/24 01:20:01;;;;;;;17.38;15.68;;;2.40;99.90;;;;;;5092662;28;20070;-63
2023/01/24 01:22:27;;;;;;;15.63;14.13;;;2.60;99.90;;;;;;5092654;28;20027;-64
2023/01/24 01:24:53;;;;;;;16.83;15.13;;;2.60;99.90;;;;;;5092890;28;20492;-64
2023/01/24 01:27:19;;;;;;;16.35;14.75;;;2.60;99.90;;;;;;5092522;28;20157;-63
2023/01/24 01:29:44;;;;;;;16.85;15.15;;;2.50;99.90;;;;;;5092435;28;20051;-63
2023/01/24 01:32:10;;;;;;;16.60;14.90;;;2.50;99.90;;;;;;5092409;28;20530;-63
2023/01/24 01:34:36;;;;;;;16.13;14.50;;;2.50;99.90;;;;;;5092419;28;20054;-63
2023/01/24 01:37:01;;;;;;;15.70;14.02;;;2.60;99.90;;;;;;5092272;28;20103;-63
2023/01/24 01:39:27;;;;;;;17.00;15.20;;;2.50;99.90;;;;;;5092590;28;20028;-63
2023/01/24 01:41:53;;;;;;;16.20;14.60;;;2.50;99.90;;;;;;5092294;28;20020;-64
2023/01/24 01:47:35;;;;;;;16.08;14.43;;;2.40;99.90;;;;;;5082755;28;20085;-63
2023/01/24 01:50:29;;;;;;;15.90;14.23;;;2.40;99.90;;;;;;5092009;28;20063;-64
2023/01/24 01:52:56;;;;;;;;;;;2.40;99.90;;;;;;5092494;28;20561;-63
2023/01/24 01:55:27;;;;;;;16.05;14.40;;;2.30;99.90;;;;;;5092519;28;19908;-63
2023/01/24 01:57:53;;;;;;;14.52;13.02;;;2.30;99.90;;;;;;5092305;28;20109;-63
2023/01/24 02:00:23;;;;;;;16.42;14.70;;;2.30;99.90;;;;;;5094032;28;20020;-64
2023/01/24 02:03:37;;;;;;;16.25;14.65;;;2.30;99.90;;;;;;5096242;28;20040;-64
2023/01/24 02:05:42;;;;;;;15.48;13.88;;;2.30;99.90;;;;;;5096271;28;20393;-64
2023/01/24 02:08:11;;;;;;;15.10;13.50;;;2.30;99.90;;;;;;5095971;28;20043;-64
2023/01/24 02:13:22;;;;;;;14.73;13.25;;;2.30;99.90;;;;;;5095816;28;20039;-64
2023/01/24 02:16:03;;;;;;;14.30;12.80;;;2.30;99.90;;;;;;5096163;28;20024;-64
2023/01/24 02:18:34;;;;;;;13.75;12.27;;;2.30;99.90;;;;;;5096111;28;20075;-64
2023/01/24 02:21:01;;;;;;;13.90;12.50;;;2.30;99.90;;;;;;5095925;28;20024;-66
2023/01/24 02:23:39;;;;;;;14.32;12.93;;;2.30;99.90;;;;;;5096314;28;20024;-64
2023/01/24 02:26:14;;;;;;;14.27;12.88;;;2.20;99.90;;;;;;5095759;28;20146;-64
2023/01/24 02:28:45;;;;;;;13.90;12.60;;;2.20;99.90;;;;;;5095590;28;20024;-64
2023/01/24 02:31:11;;;;;;;14.52;12.10;;;2.20;99.90;;;;;;5096172;28;20511;-65
2023/01/24 02:33:37;;;;;;;13.45;12.10;;;2.20;99.90;;;;;;5095776;28;20028;-64
2023/01/24 02:36:25;;;;;;;13.80;12.50;;;2.30;99.90;;;;;;5095722;28;20020;-64
2023/01/24 02:39:15;;;;;;;12.88;11.57;;;2.20;99.90;;;;;;5095599;28;20040;-64
2023/01/24 02:41:50;;;;;;;12.25;11.05;;;2.30;99.90;;;;;;5095746;28;20481;-64
2023/01/24 02:45:06;;;;;;;12.52;11.35;;;2.30;99.90;;;;;;5095683;28;20392;-64
2023/01/24 02:47:37;;;;;;;12.30;11.10;;;2.50;99.90;;;;;;5091810;28;20040;-64
2023/01/24 02:50:04;;;;;;;12.52;11.32;;;2.40;99.90;;;;;;5095463;28;20024;-64
2023/01/24 02:55:14;;;;;;;11.93;10.82;;;2.40;99.90;;;;;;5095809;28;20042;-64
2023/01/24 03:00:24;;;;;;;12.57;11.30;;;2.30;99.90;;;;;;5095336;28;20085;-64
2023/01/24 03:02:50;;;;;;;11.50;10.40;;;2.30;99.90;;;;;;5095331;28;20454;-64
2023/01/24 03:05:16;;;;;;;10.95;9.85;;;2.50;99.90;;;;;;5095281;28;20037;-64
2023/01/24 03:07:44;;;;;;;11.50;10.40;;;2.50;99.90;;;;;;5095053;28;20411;-64
2023/01/24 03:10:11;;;;;;;12.52;11.32;;;2.50;99.90;;;;;;5094542;28;20052;-64
2023/01/24 03:34:32;;;;;;;15.48;13.98;;;2.50;99.90;;;;;;5094648;28;20031;-64
2023/01/24 03:36:59;;;;;;;13.07;11.75;;;2.60;99.90;;;;;;5094451;28;20039;-64
2023/01/24 03:42:08;;;;;;;19.40;17.50;;;2.60;99.90;;;;;;5094438;28;20589;-64
2023/01/24 03:44:34;;;;;;;20.05;18.00;;;2.60;99.90;;;;;;5094889;28;20062;-64
2023/01/24 03:47:00;;;;;;;22.65;20.25;;;2.50;99.90;;;;;;5094273;28;20073;-64
2023/01/24 03:52:28;;;;;;;26.05;23.35;;;2.50;99.90;;;;;;5094287;28;20031;-64
2023/01/24 03:54:58;;;;;;;15.88;14.38;;;2.60;99.90;;;;;;5094102;28;20035;-64
2023/01/24 03:57:25;;;;;;;23.13;20.83;;;2.60;99.90;;;;;;5094218;28;20028;-64
2023/01/24 03:59:51;;;;;;;18.17;16.38;;;2.60;99.90;;;;;;5094110;28;20040;-64
2023/01/24 04:02:17;;;;;;;26.48;23.67;;;2.60;99.90;;;;;;5094273;28;20020;-64
2023/01/24 04:07:27;;;;;;;43.80;39.22;;;2.60;99.90;;;;;;5094036;28;20496;-64
2023/01/24 04:09:53;;;;;;;40.00;35.80;;;2.50;99.90;;;;;;5093586;28;20048;-64
2023/01/24 04:12:20;;;;;;;32.60;29.13;;;2.60;99.90;;;;;;5094183;28;20132;-64
2023/01/24 04:14:46;;;;;;;32.50;29.10;;;2.60;99.90;;;;;;5093642;28;20024;-64
2023/01/24 04:17:11;;;;;;;22.85;20.55;;;2.70;99.90;;;;;;5093630;28;20039;-64
2023/01/24 04:19:37;;;;;;;19.77;17.77;;;2.60;99.90;;;;;;5093695;28;20520;-64
2023/01/24 04:22:03;;;;;;;17.40;15.13;;;2.60;99.90;;;;;;5093276;28;20025;-64
2023/01/24 04:24:28;;;;;;;16.33;14.63;;;2.50;99.90;;;;;;5093305;28;20024;-64
2023/01/24 04:26:54;;;;;;;21.40;19.20;;;2.50;99.90;;;;;;5093517;28;20024;-64
2023/01/24 04:29:20;;;;;;;29.92;26.90;;;2.60;99.90;;;;;;5093431;28;20024;-64
2023/01/24 04:31:46;;;;;;;20.85;18.63;;;2.50;99.90;;;;;;5093413;28;20508;-64
2023/01/24 04:34:11;;;;;;;20.58;18.48;;;2.60;99.90;;;;;;5093870;28;20025;-64
2023/01/24 04:36:37;;;;;;;24.05;21.55;;;2.60;99.90;;;;;;5093430;28;20111;-64
2023/01/24 04:39:03;;;;;;;18.15;16.02;;;2.60;99.90;;;;;;5092986;28;20039;-64
2023/01/24 04:41:29;;;;;;;18.05;15.60;;;2.50;99.90;;;;;;5093418;28;20024;-64
2023/01/24 04:43:55;;;;;;;17.58;15.88;;;2.60;99.90;;;;;;5093489;28;20060;-64
2023/01/24 04:46:20;;;;;;;18.23;16.42;;;2.70;99.90;;;;;;5093157;28;20092;-64
2023/01/24 04:48:46;;;;;;;18.52;15.57;;;2.50;99.90;;;;;;5093215;28;20048;-64
2023/01/24 04:51:12;;;;;;;17.17;15.38;;;2.50;99.90;;;;;;5093104;28;20362;-64
2023/01/24 04:53:39;;;;;;;15.25;13.07;;;2.60;99.90;;;;;;5093109;28;20468;-64
2023/01/24 04:56:06;;;;;;;16.17;14.65;;;2.70;99.90;;;;;;5092853;28;20024;-64
2023/01/24 04:58:33;;;;;;;18.50;16.60;;;2.70;99.90;;;;;;5093070;28;20032;-65
2023/01/24 05:00:59;;;;;;;18.33;16.48;;;2.60;99.90;;;;;;5092828;28;20016;-64
2023/01/24 05:03:25;;;;;;;16.85;15.13;;;2.60;99.90;;;;;;5092771;28;20147;-64
2023/01/24 05:05:52;;;;;;;14.43;12.93;;;2.70;99.90;;;;;;5092943;28;20024;-64
2023/01/24 05:08:18;;;;;;;15.80;14.30;;;2.70;99.90;;;;;;5092748;28;20107;-63
2023/01/24 05:10:44;;;;;;;14.10;12.68;;;2.70;99.90;;;;;;5092630;28;20044;-64
2023/01/24 05:13:10;;;;;;;15.52;13.95;;;2.70;99.90;;;;;;5092769;28;20020;-64
2023/01/24 05:15:36;;;;;;;15.07;13.68;;;2.70;99.90;;;;;;5092609;28;20439;-63
2023/01/24 05:18:02;;;;;;;16.60;14.73;;;2.60;99.90;;;;;;5092478;28;20044;-64
2023/01/24 05:20:28;;;;;;;13.80;12.50;;;2.50;99.90;;;;;;5092781;28;20016;-64
2023/01/24 05:22:57;;;;;;;15.93;14.40;;;2.60;99.90;;;;;;5092511;28;20039;-63
2023/01/24 05:25:23;;;;;;;16.80;15.13;;;2.60;99.90;;;;;;5092547;28;20110;-63
2023/01/24 05:27:49;;;;;;;19.85;17.95;;;2.60;99.90;;;;;;5092840;28;20043;-63
2023/01/24 05:30:15;;;;;;;17.15;15.43;;;2.60;99.90;;;;;;5092630;28;20516;-64
2023/01/24 05:32:41;;;;;;;14.30;12.85;;;2.60;99.90;;;;;;5092481;28;20048;-63
2023/01/24 05:35:07;;;;;;;15.93;14.30;;;2.60;99.90;;;;;;5092303;28;20024;-63
2023/01/24 05:37:36;;;;;;;14.90;13.43;;;2.60;99.90;;;;;;5091908;28;20451;-64
2023/01/24 05:40:03;;;;;;;16.35;14.57;;;2.60;99.90;;;;;;5092660;28;20052;-63
2023/01/24 05:42:29;;;;;;;15.50;13.95;;;2.60;99.90;;;;;;5092263;28;20036;-64
2023/01/24 05:44:55;;;;;;;17.75;15.77;;;2.50;99.90;;;;;;5092608;28;20141;-64
2023/01/24 05:47:21;;;;;;;16.05;14.45;;;2.60;99.90;;;;;;5092160;28;20029;-64
2023/01/24 05:49:47;;;;;;;17.33;14.85;;;2.60;99.90;;;;;;5092721;28;20020;-63
2023/01/24 05:52:18;;;;;;;18.10;16.20;;;2.60;99.90;;;;;;5091862;28;20099;-64
2023/01/24 05:54:44;;;;;;;17.02;15.38;;;2.50;99.90;;;;;;5092202;28;20039;-64
2023/01/24 05:57:09;;;;;;;18.75;16.73;;;2.60;99.90;;;;;;5092185;28;20376;-64
2023/01/24 05:59:35;;;;;;;17.58;15.75;;;2.60;99.90;;;;;;5092465;28;20043;-64
2023/01/24 06:02:01;;;;;;;17.63;15.80;;;2.50;99.90;;;;;;5090728;28;20016;-64
2023/01/24 06:04:26;;;;;;;17.98;16.08;;;2.60;99.90;;;;;;5092139;28;20024;-63
2023/01/24 06:06:52;;;;;;;17.30;15.50;;;2.60;99.90;;;;;;5091552;28;20099;-64
2023/01/24 06:09:18;;;;;;;18.80;16.80;;;2.50;99.90;;;;;;5092173;28;20050;-64
2023/01/24 06:11:43;;;;;;;19.58;17.48;;;2.50;99.90;;;;;;5091997;28;20024;-63
2023/01/24 06:14:09;;;;;;;20.80;16.08;;;2.50;99.90;;;;;;5091958;28;20035;-64
2023/01/24 06:16:35;;;;;;;14.95;13.45;;;2.50;99.90;;;;;;5091984;28;20032;-64
2023/01/24 06:19:01;;;;;;;15.52;14.02;;;2.60;99.90;;;;;;5092187;28;20119;-64
2023/01/24 06:21:32;;;;;;;15.25;13.68;;;2.60;99.90;;;;;;5091701;28;20016;-64
2023/01/24 06:23:58;;;;;;;16.23;14.63;;;2.60;99.90;;;;;;5091983;28;20035;-64
2023/01/24 06:26:24;;;;;;;17.63;15.82;;;2.60;99.90;;;;;;5091703;28;20024;-63
2023/01/24 06:28:50;;;;;;;16.48;14.88;;;2.60;99.90;;;;;;5091825;28;20032;-64
2023/01/24 06:31:40;;;;;;;16.15;14.55;;;2.60;99.90;;;;;;5091876;28;20024;-64
2023/01/24 06:34:30;;;;;;;15.43;13.80;;;2.50;99.90;;;;;;5091852;28;20078;-63
2023/01/24 06:37:18;;;;;;;16.38;14.77;;;2.60;99.90;;;;;;5092305;28;20133;-64
2023/01/24 06:39:53;;;;;;;27.13;24.30;;;2.60;99.90;;;;;;5091725;28;20400;-64
2023/01/24 06:42:20;;;;;;;41.65;35.17;;;2.50;99.90;;;;;;5091917;28;20028;-63
2023/01/24 06:44:47;;;;;;;17.08;15.38;;;2.50;99.90;;;;;;5091729;28;20032;-64
2023/01/24 06:47:13;;;;;;;16.70;14.98;;;2.60;99.90;;;;;;5095026;28;20119;-64
2023/01/24 06:49:40;;;;;;;16.73;15.13;;;2.60;99.90;;;;;;5095213;28;20028;-64
2023/01/24 06:52:06;;;;;;;16.33;14.63;;;2.60;99.90;;;;;;5095267;28;20027;-63
2023/01/24 06:54:35;;;;;;;16.10;14.40;;;2.60;99.90;;;;;;5095436;28;20124;-63
2023/01/24 06:57:03;;;;;;;17.65;15.85;;;2.60;99.90;;;;;;5095371;28;20095;-64
2023/01/24 06:59:28;;;;;;;16.85;14.95;;;2.50;99.90;;;;;;5095693;28;20063;-64
2023/01/24 07:01:54;;;;;;;17.67;15.57;;;2.50;99.90;;;;;;5095155;28;20242;-65
2023/01/24 07:04:20;;;;;;;23.88;20.33;;;2.60;99.90;;;;;;5094934;28;20032;-64
2023/01/24 07:06:46;;;;;;;18.00;16.10;;;2.50;99.90;;;;;;5095033;28;20016;-64
2023/01/24 07:09:12;;;;;;;22.02;16.92;;;2.60;99.90;;;;;;5094925;28;20024;-64
2023/01/24 07:11:38;;;;;;;16.35;14.63;;;2.50;99.90;;;;;;5095077;28;20043;-64
2023/01/24 07:14:04;;;;;;;14.95;13.48;;;2.60;99.90;;;;;;5095383;28;20048;-64
2023/01/24 07:16:29;;;;;;;16.20;14.50;;;2.60;99.90;;;;;;5095108;28;20040;-64
2023/01/24 07:18:55;;;;;;;75.28;53.60;;;2.60;99.90;;;;;;5094494;28;20044;-64
2023/01/24 07:21:21;;;;;;;17.17;15.38;;;2.50;99.90;;;;;;5094912;28;20028;-64
2023/01/24 07:23:48;;;;;;;16.50;14.80;;;2.60;99.90;;;;;;5094836;28;20028;-64
2023/01/24 07:26:15;;;;;;;17.23;15.43;;;2.60;99.90;;;;;;5095149;28;20047;-64
2023/01/24 07:28:41;;;;;;;16.60;14.02;;;2.60;99.90;;;;;;5094844;28;20484;-64
2023/01/24 07:31:09;;;;;;;17.00;15.30;;;2.60;99.90;;;;;;5095046;28;20024;-64
2023/01/24 07:33:35;;;;;;;18.10;16.20;;;2.60;99.90;;;;;;5094610;28;20115;-64
2023/01/24 07:36:09;;;;;;;16.35;14.60;;;2.60;99.90;;;;;;5094644;28;20619;-64
2023/01/24 07:38:35;;;;;;;19.90;17.77;;;2.60;99.90;;;;;;5094458;28;20036;-65
2023/01/24 07:41:06;;;;;;;18.48;16.45;;;2.70;99.90;;;;;;5094548;28;20032;-64
2023/01/24 07:43:32;;;;;;;18.48;16.52;;;2.60;99.90;;;;;;5094796;28;20028;-64
2023/01/24 07:45:58;;;;;;;18.42;16.50;;;2.50;99.90;;;;;;5094293;28;20454;-64
2023/01/24 07:48:23;;;;;;;21.88;18.20;;;2.60;99.90;;;;;;5094191;28;20026;-64
2023/01/24 07:50:49;;;;;;;19.38;17.20;;;2.60;99.90;;;;;;5094610;28;20081;-64
2023/01/24 07:53:15;;;;;;;24.05;18.30;;;2.60;99.90;;;;;;5094230;28;20058;-64
2023/01/24 07:55:40;;;;;;;21.88;18.65;;;2.60;99.90;;;;;;5094394;28;20020;-64
2023/01/24 07:58:06;;;;;;;20.67;17.75;;;2.60;99.90;;;;;;5093109;28;20036;-64
2023/01/24 08:00:32;;;;;;;21.27;18.48;;;2.70;99.90;;;;;;5094164;28;20168;-64
2023/01/24 08:02:57;;;;;;;19.45;17.17;;;2.70;99.90;;;;;;5093992;28;20508;-64
2023/01/24 08:05:24;;;;;;;19.23;16.13;;;2.70;99.90;;;;;;5094156;28;20024;-64
2023/01/24 08:07:49;;;;;;;19.30;16.15;;;2.70;99.90;;;;;;5093735;28;20108;-64
2023/01/24 08:10:16;;;;;;;18.58;16.50;;;2.70;99.90;;;;;;5093770;28;20136;-64
2023/01/24 08:12:41;;;;;;;17.88;16.05;;;2.60;99.90;;;;;;5094328;28;20047;-64
2023/01/24 08:15:08;;;;;;;19.40;17.40;;;2.70;99.90;;;;;;5093837;28;20477;-64
2023/01/24 08:17:36;;;;;;;18.65;16.80;;;2.80;99.90;;;;;;5093742;28;20396;-64
2023/01/24 08:20:02;;;;;;;19.90;17.90;;;2.70;99.90;;;;;;5093748;28;20074;-64
2023/01/24 08:22:30;;;;;;;20.83;16.98;;;2.70;99.90;;;;;;5093897;28;20051;-64
2023/01/24 08:24:55;;;;;;;19.42;17.52;;;2.80;99.90;;;;;;5093631;28;20036;-64
2023/01/24 08:27:21;;;;;;;20.65;16.90;;;2.80;99.90;;;;;;5093561;28;20055;-64
2023/01/24 08:29:47;;;;;;;20.55;17.73;;;2.80;99.90;;;;;;5093634;28;20024;-64
2023/01/24 08:32:12;;;;;;;18.60;15.95;;;2.80;99.90;;;;;;5093131;28;20038;-64
2023/01/24 08:34:38;;;;;;;26.50;18.10;;;2.90;99.90;;;;;;5093814;28;20024;-64
2023/01/24 08:37:04;;;;;;;28.52;19.02;;;2.80;99.90;;;;;;5093355;28;20111;-64
2023/01/24 08:39:29;;;;;;;21.80;18.15;;;2.80;99.90;;;;;;5093234;28;20039;-64
2023/01/24 08:41:55;;;;;;;19.98;17.98;;;2.80;99.90;;;;;;5093382;28;20020;-64
2023/01/24 08:44:21;;;;;;;23.05;18.90;;;2.80;99.90;;;;;;5093784;28;20028;-65
2023/01/24 08:46:46;;;;;;;20.67;18.08;;;2.80;99.90;;;;;;5092773;28;20472;-64
2023/01/24 08:49:12;;;;;;;19.45;16.85;;;2.90;99.90;;;;;;5093175;28;20093;-64
2023/01/24 08:51:38;;;;;;;21.55;17.48;;;2.90;99.90;;;;;;5092991;28;20039;-64
2023/01/24 08:54:06;;;;;;;19.60;17.55;;;3.00;99.90;;;;;;5093061;28;20027;-64
2023/01/24 08:56:33;;;;;;;19.73;17.73;;;3.00;99.90;;;;;;5093523;28;20490;-64
2023/01/24 08:58:58;;;;;;;20.38;18.25;;;3.00;99.90;;;;;;5092928;28;20162;-64
2023/01/24 09:01:26;;;;;;;20.85;18.27;;;3.00;99.90;;;;;;5092611;28;20070;-64
2023/01/24 09:03:54;;;;;;;20.52;18.08;;;3.00;99.90;;;;;;5093345;28;20027;-64
2023/01/24 09:06:21;;;;;;;20.98;18.52;;;3.00;99.90;;;;;;5092737;28;20028;-64
2023/01/24 09:08:46;;;;;;;21.25;19.05;;;3.00;99.90;;;;;;5092556;28;20103;-64
2023/01/24 09:11:12;;;;;;;21.45;19.25;;;3.10;99.90;;;;;;5092629;28;20123;-64
2023/01/24 09:13:38;;;;;;;106.85;95.40;;;3.10;99.90;;;;;;5092506;28;20412;-66
2023/01/24 09:16:04;;;;;;;29.52;26.50;;;3.10;99.90;;;;;;5092681;28;20024;-64
2023/01/24 09:18:30;;;;;;;21.90;19.65;;;3.10;99.90;;;;;;5093117;28;20028;-64
2023/01/24 09:21:00;;;;;;;21.70;19.23;;;3.00;99.90;;;;;;5092641;28;20103;-64
2023/01/24 09:23:25;;;;;;;20.23;17.27;;;3.10;99.90;;;;;;5092697;28;20103;-64
2023/01/24 09:25:52;;;;;;;18.88;17.00;;;3.20;99.90;;;;;;5092937;28;20430;-65
2023/01/24 09:28:20;;;;;;;20.58;18.52;;;3.20;99.90;;;;;;5092244;28;20028;-64
2023/01/24 09:30:50;;;;;;;18.88;16.98;;;3.20;99.90;;;;;;5092415;28;20028;-64
2023/01/24 09:33:17;;;;;;;18.70;16.83;;;3.20;99.90;;;;;;5092835;28;20404;-64
2023/01/24 09:35:53;;;;;;;19.77;17.75;;;3.20;99.90;;;;;;5092445;28;20074;-64
2023/01/24 09:38:19;;;;;;;18.92;17.00;;;3.30;99.90;;;;;;5092335;28;20035;-64
2023/01/24 09:40:52;;;;;;;19.60;17.63;;;3.30;99.90;;;;;;5092365;28;20499;-64
2023/01/24 09:43:43;;;;;;;20.58;18.38;;;3.30;99.90;;;;;;5091928;28;20029;-65
2023/01/24 09:46:30;;;;;;;20.05;17.95;;;3.30;99.90;;;;;;5092596;28;20373;-64
2023/01/24 09:49:17;;;;;;;20.88;18.77;;;3.30;99.90;;;;;;5092358;28;20035;-64
2023/01/24 09:51:53;;;;;;;20.00;17.88;;;3.40;99.90;;;;;;5092313;28;20487;-65
2023/01/24 09:54:28;;;;;;;20.67;18.58;;;3.50;99.90;;;;;;5092253;28;20479;-64
2023/01/24 09:56:55;;;;;;;24.55;22.05;;;3.50;99.90;;;;;;5092139;28;20095;-64
2023/01/24 09:59:41;;;;;;;21.25;19.15;;;3.60;99.90;;;;;;5092118;28;20557;-64
2023/01/24 10:02:17;;;;;;;24.17;21.60;;;3.70;99.90;;;;;;5092479;28;20441;-64
2023/01/24 10:04:44;;;;;;;19.83;17.77;;;3.70;99.90;;;;;;5091888;28;20028;-64
2023/01/24 10:07:29;;;;;;;20.48;18.30;;;3.60;99.90;;;;;;5092039;28;20020;-64
2023/01/24 10:10:17;;;;;;;20.88;18.70;;;3.70;99.90;;;;;;5092022;28;20120;-64
2023/01/24 10:13:01;;;;;;;19.63;17.73;;;3.70;99.90;;;;;;5092050;28;20036;-64
2023/01/24 10:16:03;;;;;;;18.67;16.77;;;3.90;99.90;;;;;;5092032;28;20024;-64
2023/01/24 10:18:40;;;;;;;19.17;17.27;;;3.90;99.90;;;;;;5084936;28;20111;-64
2023/01/24 10:21:24;;;;;;;18.52;16.73;;;3.90;99.90;;;;;;5092573;28;20028;-64
2023/01/24 10:23:55;;;;;;;19.13;17.13;;;3.90;99.90;;;;;;5095912;28;20089;-64
2023/01/24 10:26:35;;;;;;;18.77;16.85;;;3.80;99.90;;;;;;5095836;28;20051;-64
2023/01/24 10:29:14;;;;;;;18.00;16.20;;;4.10;99.90;;;;;;5096242;28;20016;-64
2023/01/24 10:31:52;;;;;;;19.00;16.95;;;4.10;99.90;;;;;;5095934;28;20038;-64
2023/01/24 10:34:47;;;;;;;18.35;16.42;;;4.00;99.90;;;;;;5095756;28;20384;-64
2023/01/24 10:37:36;;;;;;;17.25;15.30;;;4.10;99.90;;;;;;5053303;28;20040;-64
2023/01/24 10:40:15;;;;;;;18.15;16.30;;;4.00;99.90;;;;;;5053661;28;20037;-64
2023/01/24 10:42:41;;;;;;;20.38;18.17;;;4.10;99.90;;;;;;5053238;28;20033;-65
2023/01/24 10:45:45;;;;;;;19.73;17.73;;;4.10;99.90;;;;;;5053170;28;20033;-64
2023/01/24 10:48:23;;;;;;;19.05;17.15;;;4.30;99.90;;;;;;5052919;28;20148;-65
2023/01/24 10:50:48;;;;;;;17.85;15.95;;;4.30;99.90;;;;;;5053065;28;20037;-64
2023/01/24 10:53:25;;;;;;;34.47;28.42;;;4.20;99.90;;;;;;5036718;28;20429;-64
2023/01/24 10:56:03;;;;;;;25.30;21.38;;;4.40;99.90;;;;;;5052871;28;20456;-64
2023/01/24 10:58:43;;;;;;;17.60;15.70;;;4.60;99.90;;;;;;5052821;28;20437;-65
2023/01/24 11:01:18;;;;;;;17.23;15.45;;;4.50;99.90;;;;;;5053032;28;20513;-64
2023/01/24 11:03:44;;;;;;;17.92;16.05;;;4.50;99.90;;;;;;5052780;28;20025;-64
2023/01/24 11:06:33;;;;;;;27.35;23.60;;;4.50;99.90;;;;;;5036446;28;20032;-64
2023/01/24 11:09:20;;;;;;;22.95;19.85;;;4.60;99.90;;;;;;5053014;28;20036;-64
2023/01/24 11:11:54;;;;;;;21.20;19.00;;;4.80;99.90;;;;;;5052344;28;20041;-64
2023/01/24 11:14:23;;;;;;;16.85;14.88;;;4.90;99.90;;;;;;5066234;28;20363;-64
2023/01/24 11:16:55;;;;;;;16.85;14.63;;;4.70;99.90;;;;;;5074574;28;20561;-64
2023/01/24 11:19:36;;;;;;;16.90;15.10;;;4.80;99.90;;;;;;5074762;28;20041;-64
2023/01/24 11:22:21;;;;;;;17.17;14.85;;;4.90;99.90;;;;;;5074601;28;20020;-64
2023/01/24 11:24:47;;;;;;;17.08;15.38;;;5.20;99.90;;;;;;5074275;28;20020;-64
2023/01/24 11:27:18;;;;;;;17.60;15.80;;;5.30;99.90;;;;;;5074620;28;20029;-64
2023/01/24 11:29:44;;;;;;;19.05;16.30;;;5.20;99.90;;;;;;5074924;28;20032;-64
2023/01/24 11:32:28;;;;;;;16.50;14.73;;;5.40;99.90;;;;;;5074211;28;20025;-64
2023/01/24 11:35:11;;;;;;;15.60;14.02;;;5.10;99.90;;;;;;5074530;28;20027;-64
2023/01/24 11:38:16;;;;;;;17.35;15.35;;;5.20;99.90;;;;;;5074383;28;20503;-64
2023/01/24 11:40:46;;;;;;;16.80;15.00;;;5.10;99.90;;;;;;5074444;28;20116;-64
2023/01/24 11:43:20;;;;;;;16.45;14.85;;;5.20;99.90;;;;;;5074343;28;20468;-64
2023/01/24 11:46:10;;;;;;;20.88;17.95;;;5.30;99.90;;;;;;5074359;28;20027;-64
2023/01/24 11:48:58;;;;;;;19.02;16.38;;;5.20;99.90;;;;;;5074111;28;20078;-64
2023/01/24 11:51:51;;;;;;;28.27;24.85;;;5.10;99.90;;;;;;5074038;28;20146;-64
2023/01/24 11:54:26;;;;;;;14.57;13.07;;;5.10;99.90;;;;;;5073795;28;20511;-64
2023/01/24 11:57:22;;;;;;;19.48;16.70;;;5.30;99.90;;;;;;5073907;28;20028;-64
2023/01/24 11:59:59;;;;;;;23.25;19.80;;;5.30;99.90;;;;;;5073667;28;20029;-64
2023/01/24 12:02:51;;;;;;;16.08;14.45;;;5.30;99.90;;;;;;5074271;28;20052;-64
2023/01/24 12:05:29;;;;;;;28.80;22.83;;;5.40;99.90;;;;;;5074191;28;20028;-64
2023/01/24 12:08:20;;;;;;;22.52;18.48;;;5.40;99.90;;;;;;5087203;28;20032;-64
2023/01/24 12:11:12;;;;;;;19.05;16.80;;;5.70;99.90;;;;;;5093729;28;20044;-64
2023/01/24 12:14:11;;;;;;;20.70;17.55;;;5.40;99.90;;;;;;5093938;28;20429;-64
2023/01/24 12:16:56;;;;;;;14.75;13.25;;;5.60;99.90;;;;;;5093804;28;20032;-64
2023/01/24 12:19:40;;;;;;;18.88;16.75;;;5.40;99.90;;;;;;5093598;28;20082;-64
2023/01/24 12:22:29;;;;;;;15.30;13.10;;;5.50;99.90;;;;;;5094052;28;20110;-64
2023/01/24 12:24:57;;;;;;;15.93;14.32;;;5.40;99.90;;;;;;5093676;28;20051;-64
2023/01/24 12:27:29;;;;;;;17.23;15.43;;;5.40;99.90;;;;;;5093565;28;20544;-64
2023/01/24 12:30:04;;;;;;;14.80;13.30;;;5.80;99.90;;;;;;5093469;28;20066;-64
2023/01/24 12:32:38;;;;;;;14.25;12.80;;;5.80;99.90;;;;;;5093717;28;20026;-64
2023/01/24 12:35:17;;;;;;;15.48;13.95;;;5.80;99.90;;;;;;5093431;28;20039;-64
2023/01/24 12:37:56;;;;;;;15.30;13.70;;;5.80;99.90;;;;;;5093169;28;20435;-64
2023/01/24 12:40:35;;;;;;;15.18;13.57;;;5.70;99.90;;;;;;5093345;28;20066;-64
2023/01/24 12:43:16;;;;;;;13.82;12.43;;;5.90;99.90;;;;;;5092817;28;20375;-63
2023/01/24 12:45:58;;;;;;;13.63;12.23;;;5.80;99.90;;;;;;5093622;28;20054;-64
2023/01/24 12:49:09;;;;;;;13.85;12.45;;;5.90;99.90;;;;;;5073225;28;20086;-64
2023/01/24 12:51:56;;;;;;;14.02;12.73;;;6.10;99.90;;;;;;5050047;28;20047;-64
2023/01/24 12:54:28;;;;;;;14.35;12.95;;;6.10;99.90;;;;;;5050707;28;20028;-64
2023/01/24 12:57:26;;;;;;;14.45;13.05;;;5.70;99.90;;;;;;5050926;28;20033;-64
2023/01/24 12:59:52;;;;;;;15.05;13.52;;;6.10;99.90;;;;;;5050556;28;20033;-64
2023/01/24 13:02:36;;;;;;;14.35;12.88;;;5.90;99.90;;;;;;5050417;28;20566;-64
2023/01/24 13:05:16;;;;;;;13.13;11.82;;;5.90;99.90;;;;;;5050555;28;20029;-64
2023/01/24 13:08:03;;;;;;;12.95;11.57;;;5.90;99.90;;;;;;5062442;28;20060;-64
2023/01/24 13:10:56;;;;;;;14.88;12.50;;;6.00;99.90;;;;;;5070200;28;20078;-64
2023/01/24 13:13:44;;;;;;;12.68;11.40;;;6.30;99.90;;;;;;5070523;28;20029;-64
2023/01/24 13:16:50;;;;;;;13.13;11.73;;;6.40;99.90;;;;;;5070221;28;20554;-64
2023/01/24 13:19:25;;;;;;;14.82;13.23;;;6.40;99.90;;;;;;5070177;28;20036;-64
2023/01/24 13:22:05;;;;;;;12.65;11.45;;;6.60;99.90;;;;;;5069835;28;20036;-64
2023/01/24 13:24:36;;;;;;;17.83;15.93;;;6.80;99.90;;;;;;5070674;28;20432;-64
2023/01/24 13:27:36;;;;;;;18.13;16.30;;;6.90;99.90;;;;;;5053286;28;20605;-64
2023/01/24 13:30:23;;;;;;;12.07;10.98;;;7.10;99.90;;;;;;5092755;28;20039;-64
2023/01/24 13:32:53;;;;;;;12.77;11.57;;;6.90;99.90;;;;;;5092604;28;20032;-64
2023/01/24 13:35:24;;;;;;;12.38;11.15;;;6.80;99.90;;;;;;5092148;28;20361;-64
2023/01/24 13:37:52;;;;;;;13.32;11.75;;;6.80;99.90;;;;;;5092699;28;20447;-64
2023/01/24 13:40:21;;;;;;;14.73;13.32;;;6.50;99.90;;;;;;5092406;28;20032;-63
2023/01/24 13:42:47;;;;;;;14.02;12.55;;;6.50;99.90;;;;;;5092237;28;20485;-64